sensor_id;sensor_type;location;lat;lon;timestamp;P1;durP1;ratioP1;P2;durP2;ratioP2
65130;SDS011;51709;54.912;8.316;2023-02-21T00:03:15;19.38;;;3.20;;
65130;SDS011;51709;54.912;8.316;2023-02-21T00:08:54;20.60;;;3.45;;
65130;SDS011;51709;54.912;8.316;2023-02-21T00:14:33;17.05;;;2.85;;
65130;SDS011;51709;54.912;8.316;2023-02-21T00:20:15;31.55;;;2.97;;
65130;SDS011;51709;54.912;8.316;2023-02-21T00:25:55;18.67;;;3.72;;
65130;SDS011;51709;54.912;8.316;2023-02-21T00:31:34;32.28;;;4.32;;
65130;SDS011;51709;54.912;8.316;2023-02-21T00:37:14;23.67;;;4.25;;
65130;SDS011;51709;54.912;8.316;2023-02-21T00:42:54;28.00;;;4.50;;
65130;SDS011;51709;54.912;8.316;2023-02-21T00:48:34;21.80;;;3.72;;
65130;SDS011;51709;54.912;8.316;2023-02-21T00:54:13;30.50;;;3.97;;
65130;SDS011;51709;54.912;8.316;2023-02-21T00:59:52;29.00;;;4.22;;
65130;SDS011;51709;54.912;8.316;2023-02-21T01:05:31;27.73;;;5.38;;
65130;SDS011;51709;54.912;8.316;2023-02-21T01:11:17;27.52;;;4.68;;
65130;SDS011;51709;54.912;8.316;2023-02-21T01:16:58;20.27;;;3.83;;
65130;SDS011;51709;54.912;8.316;2023-02-21T01:22:37;32.92;;;4.88;;
65130;SDS011;51709;54.912;8.316;2023-02-21T01:28:16;38.00;;;4.97;;
65130;SDS011;51709;54.912;8.316;2023-02-21T01:33:55;30.13;;;4.70;;
65130;SDS011;51709;54.912;8.316;2023-02-21T01:39:34;24.80;;;4.57;;
65130;SDS011;51709;54.912;8.316;2023-02-21T01:50:59;30.60;;;5.05;;
65130;SDS011;51709;54.912;8.316;2023-02-21T01:56:41;34.25;;;5.88;;
65130;SDS011;51709;54.912;8.316;2023-02-21T02:02:24;28.90;;;4.60;;
65130;SDS011;51709;54.912;8.316;2023-02-21T02:08:08;27.38;;;4.45;;
65130;SDS011;51709;54.912;8.316;2023-02-21T02:14:01;25.23;;;4.07;;
65130;SDS011;51709;54.912;8.316;2023-02-21T02:19:40;34.28;;;4.50;;
65130;SDS011;51709;54.912;8.316;2023-02-21T02:25:21;24.67;;;4.03;;
65130;SDS011;51709;54.912;8.316;2023-02-21T02:36:29;18.58;;;3.53;;
65130;SDS011;51709;54.912;8.316;2023-02-21T02:42:06;19.00;;;4.72;;
65130;SDS011;51709;54.912;8.316;2023-02-21T02:47:36;33.22;;;5.43;;
65130;SDS011;51709;54.912;8.316;2023-02-21T02:53:00;35.78;;;4.97;;
65130;SDS011;51709;54.912;8.316;2023-02-21T02:58:27;28.05;;;5.55;;
65130;SDS011;51709;54.912;8.316;2023-02-21T03:15:25;36.90;;;4.78;;
65130;SDS011;51709;54.912;8.316;2023-02-21T03:20:53;30.70;;;4.85;;
65130;SDS011;51709;54.912;8.316;2023-02-21T03:26:17;16.52;;;4.20;;
65130;SDS011;51709;54.912;8.316;2023-02-21T03:31:48;35.38;;;5.40;;
65130;SDS011;51709;54.912;8.316;2023-02-21T03:37:20;42.80;;;4.40;;
65130;SDS011;51709;54.912;8.316;2023-02-21T03:42:56;21.92;;;4.13;;
65130;SDS011;51709;54.912;8.316;2023-02-21T03:48:19;35.78;;;5.53;;
65130;SDS011;51709;54.912;8.316;2023-02-21T03:53:57;17.48;;;2.80;;
65130;SDS011;51709;54.912;8.316;2023-02-21T03:59:26;29.40;;;5.45;;
65130;SDS011;51709;54.912;8.316;2023-02-21T04:04:48;23.15;;;4.63;;
65130;SDS011;51709;54.912;8.316;2023-02-21T04:10:12;22.77;;;3.37;;
65130;SDS011;51709;54.912;8.316;2023-02-21T04:15:37;27.27;;;5.03;;
65130;SDS011;51709;54.912;8.316;2023-02-21T04:20:58;31.35;;;3.83;;
65130;SDS011;51709;54.912;8.316;2023-02-21T04:26:19;14.07;;;3.08;;
65130;SDS011;51709;54.912;8.316;2023-02-21T04:31:43;27.47;;;5.00;;
65130;SDS011;51709;54.912;8.316;2023-02-21T04:37:08;36.60;;;5.60;;
65130;SDS011;51709;54.912;8.316;2023-02-21T04:42:29;32.35;;;5.68;;
65130;SDS011;51709;54.912;8.316;2023-02-21T04:47:50;27.17;;;4.38;;
65130;SDS011;51709;54.912;8.316;2023-02-21T04:53:11;13.75;;;4.28;;
65130;SDS011;51709;54.912;8.316;2023-02-21T04:58:32;34.95;;;4.80;;
65130;SDS011;51709;54.912;8.316;2023-02-21T05:04:04;22.98;;;4.25;;
65130;SDS011;51709;54.912;8.316;2023-02-21T05:09:25;40.75;;;6.85;;
65130;SDS011;51709;54.912;8.316;2023-02-21T05:14:45;35.05;;;5.43;;
65130;SDS011;51709;54.912;8.316;2023-02-21T05:20:06;44.75;;;6.35;;
65130;SDS011;51709;54.912;8.316;2023-02-21T05:25:31;63.30;;;5.93;;
65130;SDS011;51709;54.912;8.316;2023-02-21T05:30:51;44.38;;;6.63;;
65130;SDS011;51709;54.912;8.316;2023-02-21T05:36:12;24.20;;;4.40;;
65130;SDS011;51709;54.912;8.316;2023-02-21T05:41:33;44.78;;;5.63;;
65130;SDS011;51709;54.912;8.316;2023-02-21T05:46:56;28.98;;;5.07;;
65130;SDS011;51709;54.912;8.316;2023-02-21T05:52:16;24.98;;;4.07;;
65130;SDS011;51709;54.912;8.316;2023-02-21T05:57:38;38.22;;;6.78;;
65130;SDS011;51709;54.912;8.316;2023-02-21T06:02:59;34.97;;;5.15;;
65130;SDS011;51709;54.912;8.316;2023-02-21T06:08:24;34.35;;;5.32;;
65130;SDS011;51709;54.912;8.316;2023-02-21T06:13:51;50.50;;;7.05;;
65130;SDS011;51709;54.912;8.316;2023-02-21T06:19:13;23.67;;;3.90;;
65130;SDS011;51709;54.912;8.316;2023-02-21T06:24:37;51.67;;;6.85;;
65130;SDS011;51709;54.912;8.316;2023-02-21T06:30:02;37.38;;;5.82;;
65130;SDS011;51709;54.912;8.316;2023-02-21T06:35:27;31.20;;;5.72;;
65130;SDS011;51709;54.912;8.316;2023-02-21T06:40:48;35.47;;;6.22;;
65130;SDS011;51709;54.912;8.316;2023-02-21T06:46:08;41.38;;;5.90;;
65130;SDS011;51709;54.912;8.316;2023-02-21T06:51:35;40.42;;;6.18;;
65130;SDS011;51709;54.912;8.316;2023-02-21T06:56:56;30.05;;;4.47;;
65130;SDS011;51709;54.912;8.316;2023-02-21T07:02:19;26.92;;;4.82;;
65130;SDS011;51709;54.912;8.316;2023-02-21T07:07:45;33.42;;;5.00;;
65130;SDS011;51709;54.912;8.316;2023-02-21T07:13:06;39.13;;;5.38;;
65130;SDS011;51709;54.912;8.316;2023-02-21T07:18:26;35.55;;;5.38;;
65130;SDS011;51709;54.912;8.316;2023-02-21T07:23:47;37.08;;;6.25;;
65130;SDS011;51709;54.912;8.316;2023-02-21T07:29:08;33.83;;;4.50;;
65130;SDS011;51709;54.912;8.316;2023-02-21T07:34:28;36.63;;;5.63;;
65130;SDS011;51709;54.912;8.316;2023-02-21T07:39:49;27.27;;;4.40;;
65130;SDS011;51709;54.912;8.316;2023-02-21T07:45:10;29.38;;;4.80;;
65130;SDS011;51709;54.912;8.316;2023-02-21T07:50:31;46.85;;;6.65;;
65130;SDS011;51709;54.912;8.316;2023-02-21T07:55:52;22.15;;;5.32;;
65130;SDS011;51709;54.912;8.316;2023-02-21T08:01:12;30.35;;;3.10;;
65130;SDS011;51709;54.912;8.316;2023-02-21T08:06:34;39.63;;;5.82;;
65130;SDS011;51709;54.912;8.316;2023-02-21T08:11:55;37.05;;;5.97;;
65130;SDS011;51709;54.912;8.316;2023-02-21T08:17:16;42.38;;;6.43;;
65130;SDS011;51709;54.912;8.316;2023-02-21T08:22:36;38.17;;;5.13;;
65130;SDS011;51709;54.912;8.316;2023-02-21T08:27:57;26.80;;;4.38;;
65130;SDS011;51709;54.912;8.316;2023-02-21T08:33:18;46.63;;;6.63;;
65130;SDS011;51709;54.912;8.316;2023-02-21T08:38:38;38.45;;;6.25;;
65130;SDS011;51709;54.912;8.316;2023-02-21T08:43:59;33.17;;;5.20;;
65130;SDS011;51709;54.912;8.316;2023-02-21T08:49:20;42.38;;;5.05;;
65130;SDS011;51709;54.912;8.316;2023-02-21T08:54:40;45.72;;;4.82;;
65130;SDS011;51709;54.912;8.316;2023-02-21T09:00:05;36.38;;;5.40;;
65130;SDS011;51709;54.912;8.316;2023-02-21T09:05:30;27.45;;;4.75;;
65130;SDS011;51709;54.912;8.316;2023-02-21T09:10:51;25.27;;;4.13;;
65130;SDS011;51709;54.912;8.316;2023-02-21T09:16:14;33.47;;;6.00;;
65130;SDS011;51709;54.912;8.316;2023-02-21T09:21:35;42.78;;;5.10;;
65130;SDS011;51709;54.912;8.316;2023-02-21T09:26:56;35.55;;;4.25;;
65130;SDS011;51709;54.912;8.316;2023-02-21T09:32:18;37.33;;;4.90;;
65130;SDS011;51709;54.912;8.316;2023-02-21T09:37:39;40.53;;;5.80;;
65130;SDS011;51709;54.912;8.316;2023-02-21T09:43:00;39.40;;;6.40;;
65130;SDS011;51709;54.912;8.316;2023-02-21T09:48:23;20.15;;;4.18;;
65130;SDS011;51709;54.912;8.316;2023-02-21T09:53:46;31.73;;;5.22;;
65130;SDS011;51709;54.912;8.316;2023-02-21T09:59:09;32.00;;;5.40;;
65130;SDS011;51709;54.912;8.316;2023-02-21T10:16:18;23.73;;;4.70;;
65130;SDS011;51709;54.912;8.316;2023-02-21T10:21:44;30.45;;;5.60;;
65130;SDS011;51709;54.912;8.316;2023-02-21T10:27:10;28.95;;;3.70;;
65130;SDS011;51709;54.912;8.316;2023-02-21T10:32:37;35.83;;;4.75;;
65130;SDS011;51709;54.912;8.316;2023-02-21T10:37:58;30.00;;;4.72;;
65130;SDS011;51709;54.912;8.316;2023-02-21T10:48:52;31.00;;;4.05;;
65130;SDS011;51709;54.912;8.316;2023-02-21T10:54:21;21.50;;;4.27;;
65130;SDS011;51709;54.912;8.316;2023-02-21T10:59:44;36.08;;;5.57;;
65130;SDS011;51709;54.912;8.316;2023-02-21T11:05:14;23.25;;;4.30;;
65130;SDS011;51709;54.912;8.316;2023-02-21T11:10:40;32.65;;;4.90;;
65130;SDS011;51709;54.912;8.316;2023-02-21T11:16:15;23.48;;;4.43;;
65130;SDS011;51709;54.912;8.316;2023-02-21T11:26:58;26.45;;;4.88;;
65130;SDS011;51709;54.912;8.316;2023-02-21T11:32:24;19.77;;;4.05;;
65130;SDS011;51709;54.912;8.316;2023-02-21T11:37:55;30.35;;;4.65;;
65130;SDS011;51709;54.912;8.316;2023-02-21T11:43:22;26.25;;;4.85;;
65130;SDS011;51709;54.912;8.316;2023-02-21T11:48:50;27.92;;;5.57;;
65130;SDS011;51709;54.912;8.316;2023-02-21T11:54:39;20.15;;;3.88;;
65130;SDS011;51709;54.912;8.316;2023-02-21T12:00:11;25.95;;;3.97;;
65130;SDS011;51709;54.912;8.316;2023-02-21T12:11:33;13.75;;;2.90;;
65130;SDS011;51709;54.912;8.316;2023-02-21T12:17:05;28.52;;;4.32;;
65130;SDS011;51709;54.912;8.316;2023-02-21T12:34:05;21.35;;;3.75;;
65130;SDS011;51709;54.912;8.316;2023-02-21T12:45:22;19.42;;;4.40;;
65130;SDS011;51709;54.912;8.316;2023-02-21T12:50:56;18.10;;;3.38;;
65130;SDS011;51709;54.912;8.316;2023-02-21T13:08:13;22.60;;;4.90;;
65130;SDS011;51709;54.912;8.316;2023-02-21T13:13:34;30.40;;;5.30;;
65130;SDS011;51709;54.912;8.316;2023-02-21T13:18:58;18.02;;;3.28;;
65130;SDS011;51709;54.912;8.316;2023-02-21T13:30:18;33.45;;;3.63;;
65130;SDS011;51709;54.912;8.316;2023-02-21T13:35:40;14.75;;;3.70;;
65130;SDS011;51709;54.912;8.316;2023-02-21T13:41:07;28.40;;;4.60;;
65130;SDS011;51709;54.912;8.316;2023-02-21T13:51:50;18.73;;;3.65;;
65130;SDS011;51709;54.912;8.316;2023-02-21T13:57:28;18.58;;;3.15;;
65130;SDS011;51709;54.912;8.316;2023-02-21T14:08:26;18.33;;;3.92;;
65130;SDS011;51709;54.912;8.316;2023-02-21T14:13:50;12.70;;;2.85;;
65130;SDS011;51709;54.912;8.316;2023-02-21T14:19:33;22.65;;;4.50;;
65130;SDS011;51709;54.912;8.316;2023-02-21T14:25:06;14.60;;;2.33;;
65130;SDS011;51709;54.912;8.316;2023-02-21T14:30:48;23.45;;;3.00;;
65130;SDS011;51709;54.912;8.316;2023-02-21T14:36:08;18.90;;;4.25;;
65130;SDS011;51709;54.912;8.316;2023-02-21T14:41:51;24.20;;;3.33;;
65130;SDS011;51709;54.912;8.316;2023-02-21T15:05:13;17.92;;;2.67;;
65130;SDS011;51709;54.912;8.316;2023-02-21T15:10:42;30.92;;;3.38;;
65130;SDS011;51709;54.912;8.316;2023-02-21T15:16:08;20.00;;;3.03;;
65130;SDS011;51709;54.912;8.316;2023-02-21T15:21:32;19.83;;;3.72;;
65130;SDS011;51709;54.912;8.316;2023-02-21T15:27:06;15.45;;;3.45;;
65130;SDS011;51709;54.912;8.316;2023-02-21T15:32:34;28.83;;;3.78;;
65130;SDS011;51709;54.912;8.316;2023-02-21T15:37:55;24.80;;;4.65;;
65130;SDS011;51709;54.912;8.316;2023-02-21T15:43:22;18.95;;;4.57;;
65130;SDS011;51709;54.912;8.316;2023-02-21T15:48:47;24.75;;;3.67;;
65130;SDS011;51709;54.912;8.316;2023-02-21T15:59:39;15.45;;;3.63;;
65130;SDS011;51709;54.912;8.316;2023-02-21T16:05:00;16.38;;;3.03;;
65130;SDS011;51709;54.912;8.316;2023-02-21T16:10:21;15.27;;;3.25;;
65130;SDS011;51709;54.912;8.316;2023-02-21T16:15:43;13.23;;;3.67;;
65130;SDS011;51709;54.912;8.316;2023-02-21T16:21:05;9.02;;;2.90;;
65130;SDS011;51709;54.912;8.316;2023-02-21T16:26:26;15.10;;;3.10;;
65130;SDS011;51709;54.912;8.316;2023-02-21T16:31:47;12.75;;;3.13;;
65130;SDS011;51709;54.912;8.316;2023-02-21T16:37:11;17.00;;;3.85;;
65130;SDS011;51709;54.912;8.316;2023-02-21T16:42:33;13.73;;;3.03;;
65130;SDS011;51709;54.912;8.316;2023-02-21T16:47:55;8.20;;;2.53;;
65130;SDS011;51709;54.912;8.316;2023-02-21T16:53:21;10.85;;;3.13;;
65130;SDS011;51709;54.912;8.316;2023-02-21T16:58:43;15.27;;;3.28;;
65130;SDS011;51709;54.912;8.316;2023-02-21T17:09:42;13.00;;;3.08;;
65130;SDS011;51709;54.912;8.316;2023-02-21T17:15:02;11.70;;;3.33;;
65130;SDS011;51709;54.912;8.316;2023-02-21T17:20:23;11.98;;;3.58;;
65130;SDS011;51709;54.912;8.316;2023-02-21T17:25:45;13.40;;;3.10;;
65130;SDS011;51709;54.912;8.316;2023-02-21T17:31:06;19.02;;;6.22;;
65130;SDS011;51709;54.912;8.316;2023-02-21T17:36:27;24.45;;;4.53;;
65130;SDS011;51709;54.912;8.316;2023-02-21T17:41:49;14.45;;;4.70;;
65130;SDS011;51709;54.912;8.316;2023-02-21T17:47:13;20.13;;;6.15;;
65130;SDS011;51709;54.912;8.316;2023-02-21T17:52:34;16.58;;;3.85;;
65130;SDS011;51709;54.912;8.316;2023-02-21T17:57:57;10.48;;;3.90;;
65130;SDS011;51709;54.912;8.316;2023-02-21T18:03:18;17.98;;;3.75;;
65130;SDS011;51709;54.912;8.316;2023-02-21T18:08:38;14.02;;;3.30;;
65130;SDS011;51709;54.912;8.316;2023-02-21T18:14:07;8.98;;;3.00;;
65130;SDS011;51709;54.912;8.316;2023-02-21T18:19:27;11.38;;;3.33;;
65130;SDS011;51709;54.912;8.316;2023-02-21T18:24:49;12.88;;;4.45;;
65130;SDS011;51709;54.912;8.316;2023-02-21T18:30:09;15.90;;;3.42;;
65130;SDS011;51709;54.912;8.316;2023-02-21T18:35:30;9.98;;;3.03;;
65130;SDS011;51709;54.912;8.316;2023-02-21T18:40:51;4.57;;;3.28;;
65130;SDS011;51709;54.912;8.316;2023-02-21T18:46:15;13.20;;;3.85;;
65130;SDS011;51709;54.912;8.316;2023-02-21T18:51:38;8.05;;;2.95;;
65130;SDS011;51709;54.912;8.316;2023-02-21T18:56:58;10.93;;;2.70;;
65130;SDS011;51709;54.912;8.316;2023-02-21T19:02:19;6.70;;;1.88;;
65130;SDS011;51709;54.912;8.316;2023-02-21T19:07:43;10.65;;;2.65;;
65130;SDS011;51709;54.912;8.316;2023-02-21T19:13:05;9.32;;;2.80;;
65130;SDS011;51709;54.912;8.316;2023-02-21T19:18:26;7.93;;;3.83;;
65130;SDS011;51709;54.912;8.316;2023-02-21T19:23:50;9.18;;;4.45;;
65130;SDS011;51709;54.912;8.316;2023-02-21T19:29:14;6.03;;;2.08;;
65130;SDS011;51709;54.912;8.316;2023-02-21T19:34:35;4.25;;;1.95;;
65130;SDS011;51709;54.912;8.316;2023-02-21T19:39:56;8.02;;;2.60;;
65130;SDS011;51709;54.912;8.316;2023-02-21T19:45:17;6.40;;;2.08;;
65130;SDS011;51709;54.912;8.316;2023-02-21T19:50:38;4.88;;;2.10;;
65130;SDS011;51709;54.912;8.316;2023-02-21T19:55:59;2.13;;;1.92;;
65130;SDS011;51709;54.912;8.316;2023-02-21T20:01:20;2.80;;;1.55;;
65130;SDS011;51709;54.912;8.316;2023-02-21T20:06:41;2.85;;;1.52;;
65130;SDS011;51709;54.912;8.316;2023-02-21T20:12:02;3.28;;;2.55;;
65130;SDS011;51709;54.912;8.316;2023-02-21T20:17:23;3.92;;;2.63;;
65130;SDS011;51709;54.912;8.316;2023-02-21T20:22:44;4.18;;;1.67;;
65130;SDS011;51709;54.912;8.316;2023-02-21T20:28:04;4.82;;;1.95;;
65130;SDS011;51709;54.912;8.316;2023-02-21T20:33:26;3.60;;;2.15;;
65130;SDS011;51709;54.912;8.316;2023-02-21T20:38:47;5.63;;;3.05;;
65130;SDS011;51709;54.912;8.316;2023-02-21T20:44:08;11.43;;;6.70;;
65130;SDS011;51709;54.912;8.316;2023-02-21T20:49:29;44.75;;;19.63;;
65130;SDS011;51709;54.912;8.316;2023-02-21T20:54:51;43.25;;;21.00;;
65130;SDS011;51709;54.912;8.316;2023-02-21T21:00:13;42.08;;;18.58;;
65130;SDS011;51709;54.912;8.316;2023-02-21T21:05:34;15.85;;;9.25;;
65130;SDS011;51709;54.912;8.316;2023-02-21T21:10:55;7.75;;;4.75;;
65130;SDS011;51709;54.912;8.316;2023-02-21T21:16:16;6.43;;;4.03;;
65130;SDS011;51709;54.912;8.316;2023-02-21T21:21:41;5.60;;;3.25;;
65130;SDS011;51709;54.912;8.316;2023-02-21T21:27:18;19.67;;;6.38;;
65130;SDS011;51709;54.912;8.316;2023-02-21T21:33:15;22.38;;;10.70;;
65130;SDS011;51709;54.912;8.316;2023-02-21T21:38:41;24.00;;;12.98;;
65130;SDS011;51709;54.912;8.316;2023-02-21T21:44:06;19.75;;;9.77;;
65130;SDS011;51709;54.912;8.316;2023-02-21T21:49:29;22.60;;;10.85;;
65130;SDS011;51709;54.912;8.316;2023-02-21T21:54:51;7.00;;;4.47;;
65130;SDS011;51709;54.912;8.316;2023-02-21T22:00:13;5.40;;;3.20;;
65130;SDS011;51709;54.912;8.316;2023-02-21T22:05:41;2.75;;;2.55;;
65130;SDS011;51709;54.912;8.316;2023-02-21T22:11:02;6.28;;;3.03;;
65130;SDS011;51709;54.912;8.316;2023-02-21T22:16:33;10.32;;;4.63;;
65130;SDS011;51709;54.912;8.316;2023-02-21T22:21:57;9.55;;;4.40;;
65130;SDS011;51709;54.912;8.316;2023-02-21T22:27:21;7.40;;;3.95;;
65130;SDS011;51709;54.912;8.316;2023-02-21T22:32:43;4.60;;;3.30;;
65130;SDS011;51709;54.912;8.316;2023-02-21T22:38:06;7.32;;;2.97;;
65130;SDS011;51709;54.912;8.316;2023-02-21T22:43:27;5.95;;;3.65;;
65130;SDS011;51709;54.912;8.316;2023-02-21T22:48:47;6.28;;;3.33;;
65130;SDS011;51709;54.912;8.316;2023-02-21T22:54:09;7.50;;;4.25;;
65130;SDS011;51709;54.912;8.316;2023-02-21T22:59:34;8.65;;;5.45;;
65130;SDS011;51709;54.912;8.316;2023-02-21T23:04:55;15.35;;;9.10;;
65130;SDS011;51709;54.912;8.316;2023-02-21T23:10:19;16.75;;;9.13;;
65130;SDS011;51709;54.912;8.316;2023-02-21T23:15:43;17.00;;;10.18;;
65130;SDS011;51709;54.912;8.316;2023-02-21T23:21:07;20.25;;;12.13;;
65130;SDS011;51709;54.912;8.316;2023-02-21T23:26:29;20.13;;;12.10;;
65130;SDS011;51709;54.912;8.316;2023-02-21T23:31:50;21.90;;;10.90;;
65130;SDS011;51709;54.912;8.316;2023-02-21T23:37:13;18.77;;;10.90;;
65130;SDS011;51709;54.912;8.316;2023-02-21T23:42:34;18.90;;;10.13;;
65130;SDS011;51709;54.912;8.316;2023-02-21T23:47:55;20.33;;;10.40;;
65130;SDS011;51709;54.912;8.316;2023-02-21T23:53:17;26.38;;;13.35;;
65130;SDS011;51709;54.912;8.316;2023-02-21T23:58:42;29.33;;;14.25;;
